Industry, Maine
Current Conditions -  °F | °C
As of 12:35 PM on Thursday 23 Oct 2014 (Local Time) from KWVL Reporting Station
Overcast Overcast  
Wind Chill:   Ceiling: 800
Heat Index:   Visibility: 4mi
Dew Point:   Wind: 15mph
Humidity: 87%   Direction: 30°NNE
Pressure: 29.83"   Gusts: 31mph
Location:  44.6583°N, 70.1012°W
Report Text: KWVL 231635Z 03013G27KT 4SM OVC008 09/07 A2983 RMK AO1 P0001
Loading
Personal Weather Stations






























Interactive Weather Map
Tropical Storm Tracking
New forecast layout! Learn more

10-Day Weather Forecast

Advertisements
Track Severe Weather on mobile